Test XHTML 1.0 Strict Page for WU-History Testing
Station Historical Data
 
Daily Summary for May 28, 2017 Units:  Both    English   Metric
« Previous Day
Next Day »
Daily Weekly Monthly Yearly Custom
  Current: High: Low: Average:
Temperature: 65.3 °F /  18.5 °C 65.7 °F /  18.7 °C 56.7 °F /  13.7 °C 59.3 °F /  15.2 °C
Dew Point: 58.6 °F /  14.8 °C 59.1 °F /  15.1 °C 56.2 °F /  13.4 °C 57.3 °F /  14.1 °C
Humidity: 79 % 100 % 75 % 93 %
Wind Speed: 0.0 mph /  0 km/h 8.1 mph /  13 km/h - 1.1 mph /  1.8 km/h
Wind Gust: 0.0 mph /  0 km/h 8.1 mph /  13 km/h - -
Wind:Calm - - SW
Pressure: 30.08 in /  1018.5 hPa 30.11 in /  1019.5 hPa 29.99 in /  1015.5 hPa -
Precipitation: 0.01 in /  0.25 mm      
Historical Graphs
 
 
Weather-Above Climate History
Untitled
Tabular Data for May 28, 2017
Time Temperature Dew Point Pressure Wind Wind Speed Wind Gust Humidity Rainfall Rate (Hourly) solar Conditions
00:03 58.8 °F /  14.9 °C 56.5 °F /  13.6 °C 29.99 in /  1015.5 hPa WNW 1.5 mph /  2.4 km/h 1.5 mph /  2.4 km/h 92 % 0.00 in /  0 mm 0.0 W/m2 OVC
00:08 58.6 °F /  14.8 °C 56.9 °F /  13.8 °C 29.99 in /  1015.5 hPa Calm     94 % 0.00 in /  0 mm 0.0 W/m2 OVC
00:13 58.5 °F /  14.7 °C 56.7 °F /  13.7 °C 29.99 in /  1015.5 hPa Calm     94 % 0.00 in /  0 mm 0.0 W/m2 OVC
00:18 58.5 °F /  14.7 °C 56.7 °F /  13.7 °C 29.99 in /  1015.5 hPa WNW 0.3 mph /  0.5 km/h   94 % 0.00 in /  0 mm 20.0 W/m2 OVC
00:23 58.5 °F /  14.7 °C 56.7 °F /  13.7 °C 29.99 in /  1015.5 hPa West 4.0 mph /  6.4 km/h 4.0 mph /  6.4 km/h 94 % 0.00 in /  0 mm 0.0 W/m2 OVC
00:28 58.3 °F /  14.6 °C 56.6 °F /  13.7 °C 29.99 in /  1015.5 hPa WNW 1.2 mph /  1.9 km/h   94 % 0.00 in /  0 mm 0.0 W/m2 OVC
00:34 58.1 °F /  14.5 °C 57.0 °F /  13.9 °C 29.99 in /  1015.5 hPa SSE 3.5 mph /  5.6 km/h 3.5 mph /  5.6 km/h 96 % 0.00 in /  0 mm 22.5 W/m2 OVC
00:39 57.9 °F /  14.4 °C 57.4 °F /  14.1 °C 29.99 in /  1015.5 hPa Calm     98 % 0.00 in /  0 mm 0.0 W/m2 OVC
00:44 57.7 °F /  14.3 °C 57.5 °F /  14.2 °C 29.99 in /  1015.5 hPa West 1.4 mph /  2.3 km/h 1.4 mph /  2.3 km/h 99 % 0.00 in /  0 mm 0.0 W/m2 OVC
00:49 57.6 °F /  14.2 °C 57.0 °F /  13.9 °C 29.99 in /  1015.5 hPa NW 2.6 mph /  4.2 km/h 2.6 mph /  4.2 km/h 98 % 0.00 in /  0 mm 20.0 W/m2 OVC
00:54 57.6 °F /  14.2 °C 57.3 °F /  14.1 °C 29.99 in /  1015.5 hPa WSW 1.4 mph /  2.3 km/h 1.4 mph /  2.3 km/h 99 % 0.00 in /  0 mm 0.0 W/m2 OVC
00:59 57.6 °F /  14.2 °C 57.0 °F /  13.9 °C 30.00 in /  1015.8 hPa Calm     98 % 0.00 in /  0 mm 0.0 W/m2 OVC
01:04 57.6 °F /  14.2 °C 57.3 °F /  14.1 °C 30.00 in /  1015.8 hPa Calm     99 % 0.00 in /  0 mm 17.5 W/m2 RA
01:09 57.6 °F /  14.2 °C 57.3 °F /  14.1 °C 30.00 in /  1015.8 hPa West 1.4 mph /  2.3 km/h   99 % 0.00 in /  0 mm 0.0 W/m2 RA
01:14 57.6 °F /  14.2 °C 57.0 °F /  13.9 °C 30.00 in /  1015.8 hPa Calm     98 % 0.00 in /  0 mm 0.0 W/m2 OVC
01:19 57.6 °F /  14.2 °C 57.0 °F /  13.9 °C 30.00 in /  1015.8 hPa West 8.1 mph /  13 km/h 8.1 mph /  13 km/h 98 % 0.00 in /  0 mm 17.5 W/m2 OVC
01:24 57.6 °F /  14.2 °C 57.0 °F /  13.9 °C 30.00 in /  1015.8 hPa West 1.2 mph /  1.9 km/h 1.2 mph /  1.9 km/h 98 % 0.00 in /  0 mm 0.0 W/m2
01:29 57.4 °F /  14.1 °C 56.8 °F /  13.8 °C 30.00 in /  1015.8 hPa Calm     98 % 0.00 in /  0 mm 0.0 W/m2
01:34 57.4 °F /  14.1 °C 56.8 °F /  13.8 °C 30.00 in /  1015.8 hPa WNW 2.3 mph /  3.7 km/h 2.3 mph /  3.7 km/h 98 % 0.00 in /  0 mm 20.0 W/m2 OVC
01:39 57.2 °F /  14 °C 56.9 °F /  13.8 °C 30.00 in /  1015.8 hPa NW 4.8 mph /  7.7 km/h 4.8 mph /  7.7 km/h 99 % 0.00 in /  0 mm 0.0 W/m2 OVC
01:44 57.4 °F /  14.1 °C 56.8 °F /  13.8 °C 30.00 in /  1015.8 hPa Calm     98 % 0.00 in /  0 mm 0.0 W/m2 OVC
01:49 57.2 °F /  14 °C 56.6 °F /  13.7 °C 30.00 in /  1015.8 hPa Calm     98 % 0.00 in /  0 mm 15.0 W/m2
01:54 57.2 °F /  14 °C 56.6 °F /  13.7 °C 30.00 in /  1015.8 hPa Calm     98 % 0.00 in /  0 mm 17.5 W/m2
01:59 57.2 °F /  14 °C 56.6 °F /  13.7 °C 30.00 in /  1015.8 hPa Calm     98 % 0.00 in /  0 mm 0.0 W/m2 OVC
02:04 57.2 °F /  14 °C 56.6 °F /  13.7 °C 30.00 in /  1015.8 hPa East 0.7 mph /  1.1 km/h 0.7 mph /  1.1 km/h 98 % 0.00 in /  0 mm 17.5 W/m2 OVC
02:09 57.4 °F /  14.1 °C 56.8 °F /  13.8 °C 30.00 in /  1015.8 hPa WNW 3.5 mph /  5.6 km/h   98 % 0.00 in /  0 mm 17.5 W/m2 OVC
02:14 57.2 °F /  14 °C 56.6 °F /  13.7 °C 30.01 in /  1016.1 hPa West 3.5 mph /  5.6 km/h 3.5 mph /  5.6 km/h 98 % 0.00 in /  0 mm 0.0 W/m2 OVC
02:19 57.6 °F /  14.2 °C 56.7 °F /  13.7 °C 30.01 in /  1016.1 hPa Calm     97 % 0.00 in /  0 mm 15.0 W/m2 OVC
02:25 57.4 °F /  14.1 °C 56.8 °F /  13.8 °C 30.01 in /  1016.1 hPa WSW 3.5 mph /  5.6 km/h 3.5 mph /  5.6 km/h 98 % 0.00 in /  0 mm 20.0 W/m2 OVC
02:30 57.6 °F /  14.2 °C 56.7 °F /  13.7 °C 30.01 in /  1016.1 hPa NNW 3.7 mph /  6 km/h 3.7 mph /  6 km/h 97 % 0.00 in /  0 mm 0.0 W/m2 OVC
02:35 57.6 °F /  14.2 °C 57.0 °F /  13.9 °C 30.02 in /  1016.5 hPa Calm     98 % 0.00 in /  0 mm 17.5 W/m2 OVC
02:40 57.6 °F /  14.2 °C 57.0 °F /  13.9 °C 30.02 in /  1016.5 hPa West 2.3 mph /  3.7 km/h 2.3 mph /  3.7 km/h 98 % 0.00 in /  0 mm 15.0 W/m2 OVC
02:45 57.6 °F /  14.2 °C 57.3 °F /  14.1 °C 30.02 in /  1016.5 hPa Calm     99 % 0.00 in /  0 mm 0.0 W/m2 OVC
02:50 57.4 °F /  14.1 °C 56.8 °F /  13.8 °C 30.02 in /  1016.5 hPa North 3.5 mph /  5.6 km/h 3.5 mph /  5.6 km/h 98 % 0.00 in /  0 mm 0.0 W/m2 OVC
02:55 57.6 °F /  14.2 °C 56.7 °F /  13.7 °C 30.02 in /  1016.5 hPa Calm     97 % 0.00 in /  0 mm 17.5 W/m2 OVC
03:00 57.6 °F /  14.2 °C 57.0 °F /  13.9 °C 30.02 in /  1016.5 hPa Calm     98 % 0.00 in /  0 mm 17.5 W/m2 OVC
03:05 57.4 °F /  14.1 °C 57.1 °F /  13.9 °C 30.02 in /  1016.5 hPa Calm     99 % 0.00 in /  0 mm 0.0 W/m2 OVC
03:10 57.4 °F /  14.1 °C 57.4 °F /  14.1 °C 30.02 in /  1016.5 hPa Calm     100 % 0.00 in /  0 mm 20.0 W/m2 OVC
03:15 57.2 °F /  14 °C 57.2 °F /  14 °C 30.03 in /  1016.8 hPa NNE 1.2 mph /  1.9 km/h   100 % 0.00 in /  0 mm 17.5 W/m2 OVC
03:20 57.4 °F /  14.1 °C 57.4 °F /  14.1 °C 30.02 in /  1016.5 hPa Calm     100 % 0.00 in /  0 mm 0.0 W/m2 OVC
03:25 57.4 °F /  14.1 °C 57.4 °F /  14.1 °C 30.03 in /  1016.8 hPa Calm     100 % 0.00 in /  0 mm 15.0 W/m2 OVC
03:30 57.2 °F /  14 °C 57.2 °F /  14 °C 30.03 in /  1016.8 hPa WSW 3.5 mph /  5.6 km/h 3.5 mph /  5.6 km/h 100 % 0.00 in /  0 mm 22.5 W/m2 OVC
03:35 57.6 °F /  14.2 °C 57.0 °F /  13.9 °C 30.03 in /  1016.8 hPa Calm     98 % 0.00 in /  0 mm 0.0 W/m2 OVC
03:40 57.4 °F /  14.1 °C 57.4 °F /  14.1 °C 30.03 in /  1016.8 hPa Calm     100 % 0.00 in /  0 mm 20.0 W/m2 OVC
03:45 57.6 °F /  14.2 °C 57.0 °F /  13.9 °C 30.03 in /  1016.8 hPa Calm     98 % 0.00 in /  0 mm 17.5 W/m2 OVC
03:50 57.6 °F /  14.2 °C 57.6 °F /  14.2 °C 30.03 in /  1016.8 hPa Calm     100 % 0.00 in /  0 mm 0.0 W/m2 OVC
03:55 57.6 °F /  14.2 °C 57.6 °F /  14.2 °C 30.03 in /  1016.8 hPa Calm     100 % 0.00 in /  0 mm 0.0 W/m2 OVC
04:00 57.6 °F /  14.2 °C 57.0 °F /  13.9 °C 30.03 in /  1016.8 hPa West 3.6 mph /  5.8 km/h 3.6 mph /  5.8 km/h 98 % 0.00 in /  0 mm 17.5 W/m2 OVC
04:06 57.6 °F /  14.2 °C 57.6 °F /  14.2 °C 30.03 in /  1016.8 hPa Calm     100 % 0.00 in /  0 mm 0.0 W/m2 OVC
04:11 57.4 °F /  14.1 °C 57.4 °F /  14.1 °C 30.03 in /  1016.8 hPa Calm     100 % 0.00 in /  0 mm 0.0 W/m2 OVC
04:16 57.2 °F /  14 °C 57.2 °F /  14 °C 30.03 in /  1016.8 hPa Calm     100 % 0.00 in /  0 mm 0.0 W/m2 OVC
04:21 57.2 °F /  14 °C 57.2 °F /  14 °C 30.03 in /  1016.8 hPa Calm     100 % 0.00 in /  0 mm 0.0 W/m2 OVC
04:26 57.0 °F /  13.9 °C 57.0 °F /  13.9 °C 30.04 in /  1017.2 hPa WSW 5.0 mph /  8 km/h 5.0 mph /  8 km/h 100 % 0.00 in /  0 mm 0.0 W/m2 OVC
04:31 57.0 °F /  13.9 °C 57.0 °F /  13.9 °C 30.03 in /  1016.8 hPa WSW 2.2 mph /  3.5 km/h 2.2 mph /  3.5 km/h 100 % 0.00 in /  0 mm 20.0 W/m2 OVC
04:36 56.8 °F /  13.8 °C 56.8 °F /  13.8 °C 30.03 in /  1016.8 hPa Calm     100 % 0.00 in /  0 mm 0.0 W/m2 OVC
04:41 56.7 °F /  13.7 °C 56.7 °F /  13.7 °C 30.03 in /  1016.8 hPa Calm     100 % 0.00 in /  0 mm 0.0 W/m2 OVC
04:46 56.8 °F /  13.8 °C 56.8 °F /  13.8 °C 30.03 in /  1016.8 hPa Calm     100 % 0.00 in /  0 mm 20.0 W/m2 OVC
04:51 56.7 °F /  13.7 °C 56.7 °F /  13.7 °C 30.03 in /  1016.8 hPa WSW 5.8 mph /  9.3 km/h 5.8 mph /  9.3 km/h 100 % 0.00 in /  0 mm 0.1 W/m2 OVC
04:56 56.7 °F /  13.7 °C 56.7 °F /  13.7 °C 30.03 in /  1016.8 hPa Calm     100 % 0.00 in /  0 mm 0.0 W/m2 OVC
05:01 56.7 °F /  13.7 °C 56.7 °F /  13.7 °C 30.03 in /  1016.8 hPa Calm     100 % 0.00 in /  0 mm 0.0 W/m2 OVC
05:06 56.7 °F /  13.7 °C 56.7 °F /  13.7 °C 30.03 in /  1016.8 hPa Calm     100 % 0.00 in /  0 mm 0.1 W/m2 OVC
05:11 56.7 °F /  13.7 °C 56.7 °F /  13.7 °C 30.03 in /  1016.8 hPa Calm     100 % 0.00 in /  0 mm 0.2 W/m2 OVC
05:16 56.7 °F /  13.7 °C 56.7 °F /  13.7 °C 30.03 in /  1016.8 hPa Calm     100 % 0.00 in /  0 mm 20.0 W/m2 OVC
05:21 56.7 °F /  13.7 °C 56.7 °F /  13.7 °C 30.05 in /  1017.5 hPa Calm     100 % 0.00 in /  0 mm 0.8 W/m2 OVC
05:26 56.7 °F /  13.7 °C 56.7 °F /  13.7 °C 30.04 in /  1017.2 hPa Calm     100 % 0.00 in /  0 mm 1.3 W/m2 OVC
05:31 56.8 °F /  13.8 °C 56.8 °F /  13.8 °C 30.04 in /  1017.2 hPa SE 0.4 mph /  0.6 km/h   100 % 0.00 in /  0 mm 20.0 W/m2 OVC
05:36 56.8 °F /  13.8 °C 56.8 °F /  13.8 °C 30.04 in /  1017.2 hPa Calm     100 % 0.00 in /  0 mm 2.7 W/m2 OVC
05:42 57.0 °F /  13.9 °C 57.0 °F /  13.9 °C 30.04 in /  1017.2 hPa Calm     100 % 0.00 in /  0 mm 3.7 W/m2 OVC
05:47 56.8 °F /  13.8 °C 56.8 °F /  13.8 °C 30.05 in /  1017.5 hPa Calm     100 % 0.00 in /  0 mm 22.5 W/m2 OVC
05:52 56.7 °F /  13.7 °C 56.7 °F /  13.7 °C 30.04 in /  1017.2 hPa Calm     100 % 0.00 in /  0 mm 4.8 W/m2 OVC
05:57 57.0 °F /  13.9 °C 57.0 °F /  13.9 °C 30.05 in /  1017.5 hPa Calm     100 % 0.00 in /  0 mm 6.0 W/m2 OVC
06:02 57.0 °F /  13.9 °C 57.0 °F /  13.9 °C 30.05 in /  1017.5 hPa NW 2.6 mph /  4.2 km/h 2.6 mph /  4.2 km/h 100 % 0.00 in /  0 mm 4.7 W/m2 OVC
06:07 57.0 °F /  13.9 °C 57.0 °F /  13.9 °C 30.05 in /  1017.5 hPa Calm     100 % 0.00 in /  0 mm 8.2 W/m2 OVC
06:12 56.8 °F /  13.8 °C 56.8 °F /  13.8 °C 30.05 in /  1017.5 hPa WSW 2.3 mph /  3.7 km/h 2.3 mph /  3.7 km/h 100 % 0.00 in /  0 mm 10.4 W/m2 OVC
06:17 57.0 °F /  13.9 °C 57.0 °F /  13.9 °C 30.05 in /  1017.5 hPa Calm     100 % 0.00 in /  0 mm 35.0 W/m2 OVC
06:22 57.0 °F /  13.9 °C 57.0 °F /  13.9 °C 30.05 in /  1017.5 hPa Calm     100 % 0.00 in /  0 mm 9.5 W/m2 OVC
06:27 56.8 °F /  13.8 °C 56.8 °F /  13.8 °C 30.05 in /  1017.5 hPa Calm     100 % 0.00 in /  0 mm 8.2 W/m2 OVC
06:32 56.8 °F /  13.8 °C 56.8 °F /  13.8 °C 30.05 in /  1017.5 hPa Calm     100 % 0.00 in /  0 mm 45.0 W/m2 OVC
06:37 56.8 °F /  13.8 °C 56.8 °F /  13.8 °C 30.05 in /  1017.5 hPa Calm     100 % 0.00 in /  0 mm 12.2 W/m2 OVC
06:42 57.0 °F /  13.9 °C 57.0 °F /  13.9 °C 30.05 in /  1017.5 hPa Calm     100 % 0.00 in /  0 mm 13.7 W/m2 OVC
06:47 57.0 °F /  13.9 °C 57.0 °F /  13.9 °C 30.05 in /  1017.5 hPa Calm     100 % 0.00 in /  0 mm 47.5 W/m2 OVC
06:52 57.0 °F /  13.9 °C 57.0 °F /  13.9 °C 30.05 in /  1017.5 hPa SW 2.3 mph /  3.7 km/h 2.3 mph /  3.7 km/h 100 % 0.00 in /  0 mm 21.2 W/m2 OVC
06:57 57.0 °F /  13.9 °C 57.0 °F /  13.9 °C 30.05 in /  1017.5 hPa SW 1.2 mph /  1.9 km/h 1.2 mph /  1.9 km/h 100 % 0.00 in /  0 mm 24.7 W/m2 OVC
07:02 57.2 °F /  14 °C 57.2 °F /  14 °C 30.05 in /  1017.5 hPa NNE 2.5 mph /  4 km/h 2.5 mph /  4 km/h 100 % 0.00 in /  0 mm 62.5 W/m2 OVC
07:07 57.2 °F /  14 °C 57.2 °F /  14 °C 30.05 in /  1017.5 hPa Calm     100 % 0.00 in /  0 mm 41.2 W/m2 OVC
07:13 57.2 °F /  14 °C 56.9 °F /  13.8 °C 30.05 in /  1017.5 hPa NNW 1.2 mph /  1.9 km/h 1.2 mph /  1.9 km/h 99 % 0.00 in /  0 mm 35.2 W/m2 OVC
07:18 57.2 °F /  14 °C 56.9 °F /  13.8 °C 30.05 in /  1017.5 hPa SSE 7.5 mph /  12.1 km/h 7.5 mph /  12.1 km/h 99 % 0.00 in /  0 mm 72.5 W/m2 OVC
07:23 57.2 °F /  14 °C 56.9 °F /  13.8 °C 30.05 in /  1017.5 hPa West 2.8 mph /  4.5 km/h 2.8 mph /  4.5 km/h 99 % 0.00 in /  0 mm 51.8 W/m2 OVC
07:28 57.2 °F /  14 °C 56.9 °F /  13.8 °C 30.05 in /  1017.5 hPa NNW 1.2 mph /  1.9 km/h 1.2 mph /  1.9 km/h 99 % 0.00 in /  0 mm 70.6 W/m2 OVC
07:33 57.6 °F /  14.2 °C 57.3 °F /  14.1 °C 30.05 in /  1017.5 hPa West 3.6 mph /  5.8 km/h 3.6 mph /  5.8 km/h 99 % 0.00 in /  0 mm 132.5 W/m2 OVC
07:38 58.1 °F /  14.5 °C 57.5 °F /  14.2 °C 30.05 in /  1017.5 hPa East 6.9 mph /  11.1 km/h 6.9 mph /  11.1 km/h 98 % 0.00 in /  0 mm 135.8 W/m2 OVC
07:43 58.3 °F /  14.6 °C 57.7 °F /  14.3 °C 30.05 in /  1017.5 hPa NNE 1.2 mph /  1.9 km/h 1.2 mph /  1.9 km/h 98 % 0.00 in /  0 mm 144.0 W/m2 OVC
07:48 58.8 °F /  14.9 °C 57.7 °F /  14.3 °C 30.05 in /  1017.5 hPa NNW 1.7 mph /  2.7 km/h 1.7 mph /  2.7 km/h 96 % 0.00 in /  0 mm 137.5 W/m2 BKN
07:53 58.8 °F /  14.9 °C 57.4 °F /  14.1 °C 30.05 in /  1017.5 hPa WSW 1.4 mph /  2.3 km/h 1.4 mph /  2.3 km/h 95 % 0.00 in /  0 mm 148.4 W/m2 BKN
07:58 59.0 °F /  15 °C 57.6 °F /  14.2 °C 30.05 in /  1017.5 hPa WSW 1.2 mph /  1.9 km/h 1.2 mph /  1.9 km/h 95 % 0.00 in /  0 mm 127.8 W/m2 BKN
08:03 58.8 °F /  14.9 °C 57.1 °F /  13.9 °C 30.05 in /  1017.5 hPa NNW 3.5 mph /  5.6 km/h   94 % 0.00 in /  0 mm 197.5 W/m2 BKN
08:08 58.8 °F /  14.9 °C 57.4 °F /  14.1 °C 30.06 in /  1017.8 hPa Calm     95 % 0.00 in /  0 mm 113.2 W/m2 BKN
08:13 58.5 °F /  14.7 °C 56.7 °F /  13.7 °C 30.06 in /  1017.8 hPa ESE 2.3 mph /  3.7 km/h 2.3 mph /  3.7 km/h 94 % 0.00 in /  0 mm 72.9 W/m2 OVC
08:18 57.9 °F /  14.4 °C 57.1 °F /  13.9 °C 30.07 in /  1018.2 hPa ESE 4.4 mph /  7.1 km/h 4.4 mph /  7.1 km/h 97 % 0.00 in /  0 mm 80.0 W/m2 OVC
08:23 57.6 °F /  14.2 °C 57.0 °F /  13.9 °C 30.06 in /  1017.8 hPa ESE 1.2 mph /  1.9 km/h 1.2 mph /  1.9 km/h 98 % 0.00 in /  0 mm 65.5 W/m2 OVC
08:28 57.4 °F /  14.1 °C 56.8 °F /  13.8 °C 30.07 in /  1018.2 hPa ESE 1.2 mph /  1.9 km/h 1.2 mph /  1.9 km/h 98 % 0.00 in /  0 mm 73.1 W/m2 OVC
08:33 57.4 °F /  14.1 °C 56.8 °F /  13.8 °C 30.06 in /  1017.8 hPa ESE 3.5 mph /  5.6 km/h   98 % 0.00 in /  0 mm 107.5 W/m2 OVC
08:38 57.4 °F /  14.1 °C 56.5 °F /  13.6 °C 30.07 in /  1018.2 hPa Calm     97 % 0.00 in /  0 mm 94.5 W/m2 OVC
08:43 57.4 °F /  14.1 °C 56.8 °F /  13.8 °C 30.07 in /  1018.2 hPa Calm     98 % 0.00 in /  0 mm 79.2 W/m2 OVC
08:49 57.4 °F /  14.1 °C 56.8 °F /  13.8 °C 30.07 in /  1018.2 hPa ESE 2.3 mph /  3.7 km/h   98 % 0.00 in /  0 mm 90.0 W/m2 OVC
08:54 57.4 °F /  14.1 °C 57.1 °F /  13.9 °C 30.07 in /  1018.2 hPa West 2.6 mph /  4.2 km/h 2.6 mph /  4.2 km/h 99 % 0.00 in /  0 mm 96.8 W/m2 OVC
08:59 57.2 °F /  14 °C 56.6 °F /  13.7 °C 30.08 in /  1018.5 hPa NNW 3.5 mph /  5.6 km/h 3.5 mph /  5.6 km/h 98 % 0.00 in /  0 mm 108.0 W/m2 OVC
09:04 57.6 °F /  14.2 °C 56.7 °F /  13.7 °C 30.08 in /  1018.5 hPa Calm     97 % 0.00 in /  0 mm 125.0 W/m2 OVC
09:09 57.7 °F /  14.3 °C 57.2 °F /  14 °C 30.07 in /  1018.2 hPa NNW 1.2 mph /  1.9 km/h 1.2 mph /  1.9 km/h 98 % 0.00 in /  0 mm 76.9 W/m2 OVC
09:14 57.6 °F /  14.2 °C 56.4 °F /  13.6 °C 30.08 in /  1018.5 hPa ENE 4.6 mph /  7.4 km/h 4.6 mph /  7.4 km/h 96 % 0.00 in /  0 mm 95.4 W/m2 OVC
09:19 57.6 °F /  14.2 °C 56.4 °F /  13.6 °C 30.08 in /  1018.5 hPa Calm     96 % 0.00 in /  0 mm 87.5 W/m2 OVC
09:24 57.4 °F /  14.1 °C 56.2 °F /  13.4 °C 30.08 in /  1018.5 hPa Calm     96 % 0.00 in /  0 mm 93.0 W/m2 OVC
09:29 57.7 °F /  14.3 °C 56.6 °F /  13.7 °C 30.08 in /  1018.5 hPa ENE 2.3 mph /  3.7 km/h 2.3 mph /  3.7 km/h 96 % 0.00 in /  0 mm 86.6 W/m2 OVC
09:34 57.6 °F /  14.2 °C 56.7 °F /  13.7 °C 30.08 in /  1018.5 hPa Calm     97 % 0.00 in /  0 mm 95.0 W/m2 OVC
09:39 57.6 °F /  14.2 °C 56.7 °F /  13.7 °C 30.08 in /  1018.5 hPa ENE 3.5 mph /  5.6 km/h 3.5 mph /  5.6 km/h 97 % 0.00 in /  0 mm 120.9 W/m2 OVC
09:44 57.9 °F /  14.4 °C 57.1 °F /  13.9 °C 30.08 in /  1018.5 hPa Calm     97 % 0.00 in /  0 mm 143.6 W/m2 OVC
09:49 58.1 °F /  14.5 °C 57.0 °F /  13.9 °C 30.08 in /  1018.5 hPa ESE 7.0 mph /  11.3 km/h 7.0 mph /  11.3 km/h 96 % 0.00 in /  0 mm 107.5 W/m2 OVC
09:54 57.9 °F /  14.4 °C 56.8 °F /  13.8 °C 30.09 in /  1018.8 hPa NNW 4.7 mph /  7.6 km/h 4.7 mph /  7.6 km/h 96 % 0.00 in /  0 mm 145.0 W/m2 OVC
09:59 58.5 °F /  14.7 °C 57.0 °F /  13.9 °C 30.09 in /  1018.8 hPa Calm     95 % 0.00 in /  0 mm 214.4 W/m2 OVC
10:04 58.6 °F /  14.8 °C 56.6 °F /  13.7 °C 30.10 in /  1019.2 hPa Calm     93 % 0.00 in /  0 mm 200.0 W/m2 BKN
10:09 59.0 °F /  15 °C 57.0 °F /  13.9 °C 30.10 in /  1019.2 hPa NNW 4.3 mph /  6.9 km/h 4.3 mph /  6.9 km/h 93 % 0.00 in /  0 mm 192.5 W/m2 BKN
10:14 59.0 °F /  15 °C 57.3 °F /  14.1 °C 30.10 in /  1019.2 hPa Calm     94 % 0.00 in /  0 mm 271.6 W/m2 BKN
10:19 59.7 °F /  15.4 °C 57.4 °F /  14.1 °C 30.10 in /  1019.2 hPa Calm     92 % 0.00 in /  0 mm 190.0 W/m2 BKN
10:24 59.4 °F /  15.2 °C 57.0 °F /  13.9 °C 30.10 in /  1019.2 hPa Calm     92 % 0.00 in /  0 mm 132.5 W/m2 BKN
10:29 59.2 °F /  15.1 °C 56.6 °F /  13.7 °C 30.10 in /  1019.2 hPa Calm     91 % 0.00 in /  0 mm 166.0 W/m2 OVC
10:34 59.0 °F /  15 °C 57.0 °F /  13.9 °C 30.09 in /  1018.8 hPa Calm     93 % 0.00 in /  0 mm 125.0 W/m2 OVC
10:40 59.0 °F /  15 °C 57.3 °F /  14.1 °C 30.10 in /  1019.2 hPa Calm     94 % 0.00 in /  0 mm 127.5 W/m2 OVC
10:45 59.2 °F /  15.1 °C 57.5 °F /  14.2 °C 30.10 in /  1019.2 hPa NNW 4.6 mph /  7.4 km/h 4.6 mph /  7.4 km/h 94 % 0.00 in /  0 mm 232.7 W/m2 OVC
10:50 59.5 °F /  15.3 °C 57.2 °F /  14 °C 30.10 in /  1019.2 hPa Calm     92 % 0.00 in /  0 mm 205.0 W/m2 BKN
10:55 59.9 °F /  15.5 °C 57.6 °F /  14.2 °C 30.10 in /  1019.2 hPa Calm     92 % 0.00 in /  0 mm 170.0 W/m2 BKN
11:00 59.9 °F /  15.5 °C 57.9 °F /  14.4 °C 30.10 in /  1019.2 hPa NNW 2.3 mph /  3.7 km/h 2.3 mph /  3.7 km/h 93 % 0.00 in /  0 mm 307.7 W/m2 BKN
11:05 60.3 °F /  15.7 °C 57.3 °F /  14.1 °C 30.11 in /  1019.5 hPa NNW 2.3 mph /  3.7 km/h 2.3 mph /  3.7 km/h 90 % 0.00 in /  0 mm 177.5 W/m2 BKN
11:10 60.3 °F /  15.7 °C 57.3 °F /  14.1 °C 30.11 in /  1019.5 hPa Calm     90 % 0.00 in /  0 mm 260.0 W/m2 BKN
11:15 61.0 °F /  16.1 °C 58.3 °F /  14.6 °C 30.10 in /  1019.2 hPa Calm     91 % 0.00 in /  0 mm 346.2 W/m2 BKN
11:18 61.0 °F /  16.1 °C 57.4 °F /  14.1 °C 30.10 in /  1019.2 hPa Calm     88 % 0.00 in /  0 mm 265.0 W/m2 BKN
11:23 61.2 °F /  16.2 °C 57.3 °F /  14.1 °C 30.11 in /  1019.5 hPa Calm     87 % 0.00 in /  0 mm 237.5 W/m2 BKN
11:28 61.5 °F /  16.4 °C 57.3 °F /  14.1 °C 30.10 in /  1019.2 hPa Calm     86 % 0.00 in /  0 mm 327.4 W/m2 BKN
11:33 61.2 °F /  16.2 °C 57.6 °F /  14.2 °C 30.11 in /  1019.5 hPa Calm     88 % 0.00 in /  0 mm 167.5 W/m2 BKN
11:38 61.0 °F /  16.1 °C 57.7 °F /  14.3 °C 30.11 in /  1019.5 hPa Calm     89 % 0.00 in /  0 mm 165.0 W/m2 BKN
11:43 60.6 °F /  15.9 °C 57.7 °F /  14.3 °C 30.11 in /  1019.5 hPa Calm     90 % 0.00 in /  0 mm 172.5 W/m2 OVC
11:48 60.6 °F /  15.9 °C 57.0 °F /  13.9 °C 30.10 in /  1019.2 hPa NNW 1.8 mph /  2.9 km/h 1.8 mph /  2.9 km/h 88 % 0.00 in /  0 mm 202.5 W/m2 OVC
11:53 61.0 °F /  16.1 °C 57.4 °F /  14.1 °C 30.10 in /  1019.2 hPa Calm     88 % 0.00 in /  0 mm 242.5 W/m2 BKN
11:58 61.2 °F /  16.2 °C 57.6 °F /  14.2 °C 30.10 in /  1019.2 hPa Calm     88 % 0.00 in /  0 mm 230.0 W/m2 BKN
12:03 61.2 °F /  16.2 °C 58.2 °F /  14.6 °C 30.10 in /  1019.2 hPa Calm     90 % 0.00 in /  0 mm 170.0 W/m2 BKN
12:09 61.2 °F /  16.2 °C 57.9 °F /  14.4 °C 30.10 in /  1019.2 hPa Calm     89 % 0.00 in /  0 mm 215.0 W/m2 BKN
12:14 61.5 °F /  16.4 °C 57.9 °F /  14.4 °C 30.10 in /  1019.2 hPa Calm     88 % 0.00 in /  0 mm 337.3 W/m2 BKN
12:19 62.1 °F /  16.7 °C 58.5 °F /  14.7 °C 30.10 in /  1019.2 hPa Calm     88 % 0.00 in /  0 mm 302.5 W/m2 BKN
12:24 62.1 °F /  16.7 °C 58.5 °F /  14.7 °C 30.11 in /  1019.5 hPa West 1.2 mph /  1.9 km/h   88 % 0.00 in /  0 mm 237.5 W/m2 BKN
12:29 62.2 °F /  16.8 °C 58.3 °F /  14.6 °C 30.11 in /  1019.5 hPa Calm     87 % 0.00 in /  0 mm 507.6 W/m2 BKN
12:34 63.5 °F /  17.5 °C 58.6 °F /  14.8 °C 30.11 in /  1019.5 hPa WSW 1.2 mph /  1.9 km/h 1.2 mph /  1.9 km/h 84 % 0.00 in /  0 mm 884.0 W/m2 BKN
12:39 64.2 °F /  17.9 °C 57.6 °F /  14.2 °C 30.10 in /  1019.2 hPa Calm     79 % 0.00 in /  0 mm 415.0 W/m2 SCT
12:44 63.7 °F /  17.6 °C 57.7 °F /  14.3 °C 30.10 in /  1019.2 hPa Calm     81 % 0.00 in /  0 mm 330.0 W/m2 SCT
12:49 63.3 °F /  17.4 °C 58.1 °F /  14.5 °C 30.10 in /  1019.2 hPa Calm     83 % 0.00 in /  0 mm 457.8 W/m2 BKN
12:54 63.1 °F /  17.3 °C 58.2 °F /  14.6 °C 30.10 in /  1019.2 hPa Calm     84 % 0.00 in /  0 mm 472.5 W/m2 BKN
12:59 63.5 °F /  17.5 °C 58.6 °F /  14.8 °C 30.10 in /  1019.2 hPa NNW 2.3 mph /  3.7 km/h   84 % 0.00 in /  0 mm 282.5 W/m2 BKN
13:04 63.3 °F /  17.4 °C 58.4 °F /  14.7 °C 30.10 in /  1019.2 hPa Calm     84 % 0.00 in /  0 mm 443.7 W/m2 BKN
13:09 63.1 °F /  17.3 °C 58.2 °F /  14.6 °C 30.10 in /  1019.2 hPa Calm     84 % 0.00 in /  0 mm 295.0 W/m2 BKN
13:14 63.3 °F /  17.4 °C 58.1 °F /  14.5 °C 30.10 in /  1019.2 hPa Calm     83 % 0.00 in /  0 mm 347.5 W/m2 BKN
13:19 63.9 °F /  17.7 °C 58.3 °F /  14.6 °C 30.11 in /  1019.5 hPa Calm     82 % 0.00 in /  0 mm 467.2 W/m2 BKN
13:24 63.5 °F /  17.5 °C 58.6 °F /  14.8 °C 30.11 in /  1019.5 hPa Calm     84 % 0.00 in /  0 mm 277.5 W/m2 BKN
13:29 63.9 °F /  17.7 °C 58.6 °F /  14.8 °C 30.11 in /  1019.5 hPa SSE 0.7 mph /  1.1 km/h   83 % 0.00 in /  0 mm 292.5 W/m2 BKN
13:34 63.3 °F /  17.4 °C 57.7 °F /  14.3 °C 30.11 in /  1019.5 hPa Calm     82 % 0.00 in /  0 mm 335.2 W/m2 BKN
13:39 63.7 °F /  17.6 °C 58.4 °F /  14.7 °C 30.11 in /  1019.5 hPa SW 0.6 mph /  1 km/h 0.6 mph /  1 km/h 83 % 0.00 in /  0 mm 300.0 W/m2 BKN
13:44 63.5 °F /  17.5 °C 57.9 °F /  14.4 °C 30.11 in /  1019.5 hPa SW 2.2 mph /  3.5 km/h 2.2 mph /  3.5 km/h 82 % 0.00 in /  0 mm 177.5 W/m2 BKN
13:49 62.4 °F /  16.9 °C 56.5 °F /  13.6 °C 30.11 in /  1019.5 hPa Calm     81 % 0.00 in /  0 mm 211.0 W/m2 BKN
13:54 63.0 °F /  17.2 °C 58.0 °F /  14.4 °C 30.11 in /  1019.5 hPa Calm     84 % 0.00 in /  0 mm 342.5 W/m2 BKN
14:00 63.9 °F /  17.7 °C 57.6 °F /  14.2 °C 30.11 in /  1019.5 hPa Calm     80 % 0.00 in /  0 mm 345.0 W/m2 BKN
14:05 64.8 °F /  18.2 °C 59.1 °F /  15.1 °C 30.11 in /  1019.5 hPa Calm     82 % 0.00 in /  0 mm 508.8 W/m2 BKN
14:10 64.8 °F /  18.2 °C 57.4 °F /  14.1 °C 30.11 in /  1019.5 hPa ENE 0.7 mph /  1.1 km/h 0.7 mph /  1.1 km/h 77 % 0.00 in /  0 mm 382.5 W/m2 BKN
14:15 64.4 °F /  18 °C 58.1 °F /  14.5 °C 30.11 in /  1019.5 hPa Calm     80 % 0.00 in /  0 mm 300.0 W/m2 BKN
14:20 63.3 °F /  17.4 °C 57.7 °F /  14.3 °C 30.11 in /  1019.5 hPa Calm     82 % 0.00 in /  0 mm 207.4 W/m2 BKN
14:25 63.5 °F /  17.5 °C 57.9 °F /  14.4 °C 30.11 in /  1019.5 hPa Calm     82 % 0.00 in /  0 mm 330.0 W/m2 BKN
14:35 64.4 °F /  18 °C 58.1 °F /  14.5 °C 30.11 in /  1019.5 hPa WNW 1.5 mph /  2.4 km/h 1.5 mph /  2.4 km/h 80 % 0.00 in /  0 mm 748.0 W/m2 BKN
14:40 64.4 °F /  18 °C 58.4 °F /  14.7 °C 30.11 in /  1019.5 hPa NE 1.2 mph /  1.9 km/h   81 % 0.00 in /  0 mm 280.0 W/m2 BKN
14:45 63.7 °F /  17.6 °C 58.4 °F /  14.7 °C 30.11 in /  1019.5 hPa Calm     83 % 0.00 in /  0 mm 242.5 W/m2 BKN
14:50 63.7 °F /  17.6 °C 58.8 °F /  14.9 °C 30.11 in /  1019.5 hPa Calm     84 % 0.00 in /  0 mm 306.0 W/m2 BKN
14:55 63.9 °F /  17.7 °C 58.9 °F /  14.9 °C 30.11 in /  1019.5 hPa NE 1.4 mph /  2.3 km/h 1.4 mph /  2.3 km/h 84 % 0.00 in /  0 mm 265.0 W/m2 BKN
15:00 63.5 °F /  17.5 °C 56.9 °F /  13.8 °C 30.11 in /  1019.5 hPa Calm     79 % 0.00 in /  0 mm 277.5 W/m2 BKN
15:05 63.9 °F /  17.7 °C 58.3 °F /  14.6 °C 30.11 in /  1019.5 hPa Calm     82 % 0.00 in /  0 mm 308.0 W/m2 BKN
15:10 63.7 °F /  17.6 °C 58.1 °F /  14.5 °C 30.11 in /  1019.5 hPa NNW 4.3 mph /  6.9 km/h 4.3 mph /  6.9 km/h 82 % 0.00 in /  0 mm 270.0 W/m2 BKN
15:15 64.0 °F /  17.8 °C 57.7 °F /  14.3 °C 30.11 in /  1019.5 hPa Calm     80 % 0.00 in /  0 mm 325.0 W/m2 BKN
15:20 64.0 °F /  17.8 °C 58.8 °F /  14.9 °C 30.10 in /  1019.2 hPa Calm     83 % 0.00 in /  0 mm 293.7 W/m2 BKN
15:25 64.4 °F /  18 °C 58.1 °F /  14.5 °C 30.09 in /  1018.8 hPa Calm     80 % 0.00 in /  0 mm 602.5 W/m2 BKN
15:30 64.8 °F /  18.2 °C 56.6 °F /  13.7 °C 30.09 in /  1018.8 hPa ENE 1.2 mph /  1.9 km/h   75 % 0.00 in /  0 mm 862.5 W/m2 BKN
15:35 65.7 °F /  18.7 °C 58.3 °F /  14.6 °C 30.08 in /  1018.5 hPa East 1.4 mph /  2.3 km/h 1.4 mph /  2.3 km/h 77 % 0.00 in /  0 mm 602.8 W/m2 FEW
15:41 65.5 °F /  18.6 °C 58.1 °F /  14.5 °C 30.08 in /  1018.5 hPa ENE 3.5 mph /  5.6 km/h 3.5 mph /  5.6 km/h 77 % 0.01 in /  0.25 mm 485.0 W/m2 RA
15:46 64.4 °F /  18 °C 57.7 °F /  14.3 °C 30.08 in /  1018.5 hPa ENE 1.7 mph /  2.7 km/h 1.7 mph /  2.7 km/h 79 % 0.01 in /  0.25 mm 260.7 W/m2 RA
15:51 64.2 °F /  17.9 °C 57.6 °F /  14.2 °C 30.08 in /  1018.5 hPa Calm     79 % 0.01 in /  0.25 mm 383.1 W/m2 BKN
15:56 65.3 °F /  18.5 °C 58.6 °F /  14.8 °C 30.08 in /  1018.5 hPa Calm     79 % 0.01 in /  0.25 mm 576.0 W/m2 BKN
Wether-Above
Compliments of Weather Underground - 1.75 mb
Welcome to Weather-Above
Cheddleton weather station supplies various organisations with data from our weather station one of them is the weather Underground this information displayed here is coming from the weather Underground server 

If any information is used please acknowledge the source to www weather-above.com or weather Underground